Time;durP1;ratioP1;P1;durP2;ratioP2;P2;SDS_P1;SDS_P2;PMS_P1;PMS_P2;Temp;Humidity;BMP_temperature;BMP_pressure;BME280_temperature;BME280_humidity;BME280_pressure;Samples;Min_cycle;Max_cycle;Signal;HPM_P1;HPM_P2
2021/10/26 00:01:58;;;;;;;8.27;3.80;;;7.60;99.90;;;;;;5052158;28;20036;-74
2021/10/26 00:04:23;;;;;;;10.05;4.65;;;7.70;99.90;;;;;;5050759;28;20041;-74
2021/10/26 00:06:49;;;;;;;7.72;4.45;;;7.70;99.90;;;;;;5050523;28;20041;-74
2021/10/26 00:09:16;;;;;;;6.15;3.83;;;7.80;99.90;;;;;;5049441;28;20080;-74
2021/10/26 00:11:42;;;;;;;7.85;3.95;;;7.80;99.90;;;;;;5052149;28;20041;-74
2021/10/26 00:14:08;;;;;;;8.38;4.35;;;7.90;99.90;;;;;;5049536;28;20025;-74
2021/10/26 00:16:34;;;;;;;7.47;4.35;;;7.90;99.90;;;;;;5031539;28;20033;-74
2021/10/26 00:19:00;;;;;;;7.85;3.85;;;7.80;99.90;;;;;;5043497;28;20395;-74
2021/10/26 00:21:25;;;;;;;8.02;4.15;;;7.70;99.90;;;;;;5040008;28;20029;-74
2021/10/26 00:23:51;;;;;;;7.63;3.72;;;7.60;99.90;;;;;;5040882;28;20061;-74
2021/10/26 00:26:17;;;;;;;10.45;3.97;;;7.60;99.90;;;;;;5040601;28;20025;-76
2021/10/26 00:28:43;;;;;;;7.25;3.85;;;7.60;99.90;;;;;;5038060;28;20589;-74
2021/10/26 00:31:09;;;;;;;8.95;3.95;;;7.70;99.90;;;;;;5041452;28;20699;-74
2021/10/26 00:33:34;;;;;;;7.45;3.50;;;7.60;99.90;;;;;;5040249;28;20116;-74
2021/10/26 00:36:01;;;;;;;10.68;4.20;;;7.50;99.90;;;;;;5040813;28;20095;-74
2021/10/26 00:38:27;;;;;;;8.68;4.97;;;7.70;99.90;;;;;;5041922;28;20032;-76
2021/10/26 00:40:52;;;;;;;8.85;4.10;;;7.70;99.90;;;;;;5044466;28;20044;-74
2021/10/26 00:43:20;;;;;;;7.00;3.92;;;7.60;99.90;;;;;;5046048;28;20071;-76
2021/10/26 00:45:45;;;;;;;7.60;3.65;;;7.50;99.90;;;;;;5046297;28;20736;-74
2021/10/26 00:48:11;;;;;;;9.80;4.60;;;7.40;99.90;;;;;;5043937;28;20036;-74
2021/10/26 00:50:37;;;;;;;6.60;4.07;;;7.40;99.90;;;;;;5031236;28;20037;-74
2021/10/26 00:53:03;;;;;;;7.20;4.30;;;7.50;99.90;;;;;;5044221;28;20025;-74
2021/10/26 00:55:29;;;;;;;6.60;3.85;;;7.30;99.90;;;;;;5039031;28;20044;-74
2021/10/26 00:57:55;;;;;;;7.30;4.30;;;7.30;99.90;;;;;;5039113;28;20108;-74
2021/10/26 01:00:21;;;;;;;7.38;3.85;;;7.30;99.90;;;;;;5040375;28;20491;-74
2021/10/26 01:02:47;;;;;;;5.88;3.50;;;7.30;99.90;;;;;;5017640;28;20041;-74
2021/10/26 01:05:15;;;;;;;6.30;3.70;;;7.30;99.90;;;;;;5048195;28;20064;-74
2021/10/26 01:07:41;;;;;;;6.63;3.88;;;7.20;99.90;;;;;;5042094;28;21421;-74
2021/10/26 01:10:08;;;;;;;9.30;4.47;;;7.10;99.90;;;;;;5038496;28;20170;-76
2021/10/26 01:12:36;;;;;;;7.05;3.80;;;7.10;99.90;;;;;;5046546;28;20025;-76
2021/10/26 01:15:06;;;;;;;8.40;4.30;;;7.20;99.90;;;;;;5050283;28;20152;-76
2021/10/26 01:17:32;;;;;;;8.00;3.92;;;7.10;99.90;;;;;;5052345;28;20098;-74
2021/10/26 01:19:58;;;;;;;8.52;3.70;;;6.90;99.90;;;;;;5044094;28;20075;-75
2021/10/26 01:22:26;;;;;;;9.15;4.80;;;6.90;99.90;;;;;;5042513;28;20025;-76
2021/10/26 01:24:52;;;;;;;6.53;3.72;;;6.80;99.90;;;;;;5046741;28;20102;-76
2021/10/26 01:27:18;;;;;;;7.65;3.80;;;6.70;99.90;;;;;;5035782;28;20029;-76
2021/10/26 01:29:44;;;;;;;6.05;3.72;;;6.60;99.90;;;;;;5046197;28;20028;-76
2021/10/26 01:32:13;;;;;;;9.10;3.83;;;6.40;99.90;;;;;;5045762;28;20075;-76
2021/10/26 01:34:39;;;;;;;7.03;3.88;;;6.30;99.90;;;;;;5049225;28;20043;-74
2021/10/26 01:37:07;;;;;;;6.10;3.40;;;6.30;99.90;;;;;;5036124;28;20372;-76
2021/10/26 01:39:34;;;;;;;8.93;3.38;;;6.20;99.90;;;;;;5034484;28;20032;-76
2021/10/26 01:42:00;;;;;;;13.75;4.70;;;6.40;99.90;;;;;;5035201;28;20025;-74
2021/10/26 01:44:27;;;;;;;6.72;3.72;;;6.60;99.90;;;;;;5044924;28;20037;-77
2021/10/26 01:46:53;;;;;;;8.15;3.38;;;6.70;99.90;;;;;;5040112;28;20468;-76
2021/10/26 01:49:20;;;;;;;8.75;4.03;;;6.60;99.90;;;;;;5045989;28;20040;-76
2021/10/26 01:51:47;;;;;;;6.85;3.30;;;6.70;99.90;;;;;;5047444;28;20364;-74
2021/10/26 01:54:13;;;;;;;5.65;3.33;;;6.90;99.90;;;;;;5046411;28;20029;-76
2021/10/26 01:56:40;;;;;;;6.43;3.65;;;6.90;99.90;;;;;;5060908;28;20584;-76
2021/10/26 01:59:06;;;;;;;9.20;3.88;;;6.90;99.90;;;;;;5065556;28;20138;-76
2021/10/26 02:01:32;;;;;;;9.18;3.78;;;6.80;99.90;;;;;;5042606;28;20029;-76
2021/10/26 02:03:57;;;;;;;8.20;4.30;;;6.80;99.90;;;;;;5048809;28;20056;-76
2021/10/26 02:06:23;;;;;;;7.50;3.92;;;6.70;99.90;;;;;;5048533;28;20082;-76
2021/10/26 02:08:49;;;;;;;7.22;3.90;;;6.70;99.90;;;;;;5040156;28;20056;-76
2021/10/26 02:11:15;;;;;;;5.75;3.55;;;6.80;99.90;;;;;;5038826;28;20037;-76
2021/10/26 02:13:41;;;;;;;6.85;4.05;;;6.90;99.90;;;;;;5040754;28;20471;-76
2021/10/26 02:16:07;;;;;;;8.30;4.35;;;6.80;99.90;;;;;;5040575;28;20029;-76
2021/10/26 02:18:33;;;;;;;6.15;3.58;;;6.80;99.90;;;;;;5039481;28;20103;-74
2021/10/26 02:21:00;;;;;;;7.10;3.85;;;6.70;99.90;;;;;;5040291;28;20037;-74
2021/10/26 02:23:25;;;;;;;10.35;3.60;;;6.60;99.90;;;;;;5039174;28;20029;-76
2021/10/26 02:25:51;;;;;;;6.30;3.35;;;6.60;99.90;;;;;;5038192;28;20033;-76
2021/10/26 02:28:17;;;;;;;6.22;3.22;;;6.50;99.90;;;;;;5035394;28;20044;-76
2021/10/26 02:30:44;;;;;;;7.03;4.28;;;6.60;99.90;;;;;;5048519;28;20109;-76
2021/10/26 02:33:11;;;;;;;6.10;3.13;;;6.60;99.90;;;;;;5049946;28;20060;-76
2021/10/26 02:35:37;;;;;;;6.40;3.80;;;6.80;99.90;;;;;;5047526;28;20074;-74
2021/10/26 02:38:03;;;;;;;8.52;4.03;;;6.70;99.90;;;;;;5042212;28;20403;-73
2021/10/26 02:40:29;;;;;;;5.68;3.42;;;6.90;99.90;;;;;;5047934;28;20037;-74
2021/10/26 02:42:55;;;;;;;5.93;3.67;;;7.00;99.90;;;;;;5042136;28;20020;-73
2021/10/26 02:45:27;;;;;;;6.35;3.78;;;6.90;99.90;;;;;;5030347;28;20068;-76
2021/10/26 02:47:54;;;;;;;10.52;4.32;;;6.80;99.90;;;;;;5043449;28;20399;-76
2021/10/26 02:50:20;;;;;;;7.57;3.80;;;6.80;99.90;;;;;;5049787;28;20113;-74
2021/10/26 02:52:46;;;;;;;7.32;4.25;;;6.70;99.90;;;;;;5033292;28;20123;-76
2021/10/26 02:55:12;;;;;;;8.30;3.60;;;6.80;99.90;;;;;;5048938;28;20036;-76
2021/10/26 02:57:38;;;;;;;6.38;3.60;;;6.80;99.90;;;;;;5062786;28;20580;-76
2021/10/26 03:00:10;;;;;;;7.88;3.45;;;6.70;99.90;;;;;;5042218;28;20104;-76
2021/10/26 03:02:36;;;;;;;7.22;3.78;;;6.80;99.90;;;;;;5047440;28;20468;-76
2021/10/26 03:05:02;;;;;;;6.68;3.60;;;6.70;99.90;;;;;;5033001;28;20037;-73
2021/10/26 03:07:28;;;;;;;6.50;3.25;;;6.80;99.90;;;;;;5038218;28;20056;-73
2021/10/26 03:09:54;;;;;;;9.45;3.80;;;6.80;99.90;;;;;;5038061;28;20410;-75
2021/10/26 03:12:19;;;;;;;6.43;3.67;;;6.70;99.90;;;;;;5027666;28;20464;-73
2021/10/26 03:14:45;;;;;;;8.30;4.68;;;6.70;99.90;;;;;;5021353;28;20029;-75
2021/10/26 03:17:11;;;;;;;6.85;3.92;;;6.80;99.90;;;;;;5035380;28;20033;-75
2021/10/26 03:19:36;;;;;;;9.68;3.67;;;6.70;99.90;;;;;;5034951;28;20518;-75
2021/10/26 03:22:02;;;;;;;6.93;3.63;;;6.60;99.90;;;;;;5038774;28;20075;-75
2021/10/26 03:24:28;;;;;;;5.80;2.88;;;6.60;99.90;;;;;;5041950;28;20098;-75
2021/10/26 03:26:55;;;;;;;9.68;3.67;;;6.30;99.90;;;;;;5038208;28;20025;-75
2021/10/26 03:29:21;;;;;;;5.70;3.30;;;6.50;99.90;;;;;;5044628;28;20021;-75
2021/10/26 03:31:49;;;;;;;6.85;2.92;;;6.50;99.90;;;;;;5047699;28;20422;-72
2021/10/26 03:34:15;;;;;;;6.07;3.58;;;6.60;99.90;;;;;;5041387;28;20032;-75
2021/10/26 03:36:41;;;;;;;6.45;3.50;;;6.60;99.90;;;;;;5049488;28;20032;-75
2021/10/26 03:39:06;;;;;;;7.15;3.78;;;6.60;99.90;;;;;;5048590;28;20100;-75
2021/10/26 03:41:33;;;;;;;6.55;3.45;;;6.60;99.90;;;;;;5045635;28;20106;-72
2021/10/26 03:43:58;;;;;;;8.93;3.80;;;6.70;99.90;;;;;;5044637;28;20029;-75
2021/10/26 03:46:24;;;;;;;7.28;3.45;;;6.50;99.90;;;;;;5047857;28;20032;-75
2021/10/26 03:48:50;;;;;;;6.28;3.30;;;6.50;99.90;;;;;;5043959;28;20036;-75
2021/10/26 03:51:16;;;;;;;10.63;4.35;;;6.50;99.90;;;;;;5043042;28;20053;-72
2021/10/26 03:53:42;;;;;;;7.07;4.00;;;6.50;99.90;;;;;;5045325;28;20029;-75
2021/10/26 03:56:08;;;;;;;7.78;3.55;;;6.40;99.90;;;;;;5040119;28;20028;-72
2021/10/26 03:58:35;;;;;;;6.55;3.65;;;6.50;99.90;;;;;;5030433;28;20036;-75
2021/10/26 04:01:01;;;;;;;6.03;3.60;;;6.50;99.90;;;;;;5042998;28;20028;-73
2021/10/26 04:03:27;;;;;;;6.65;3.25;;;6.60;99.90;;;;;;5036759;28;20025;-73
2021/10/26 04:06:04;;;;;;;7.47;4.25;;;6.60;99.90;;;;;;5037411;28;20044;-74
2021/10/26 04:08:36;;;;;;;6.03;3.47;;;6.60;99.90;;;;;;5020498;28;20132;-75
2021/10/26 04:13:43;;;;;;;7.68;3.90;;;6.20;99.90;;;;;;5036828;28;20049;-72
2021/10/26 04:16:09;;;;;;;5.47;3.10;;;6.30;99.90;;;;;;5043337;28;21053;-75
2021/10/26 04:18:34;;;;;;;6.10;2.90;;;6.30;99.90;;;;;;5043916;28;20033;-75
2021/10/26 04:21:00;;;;;;;7.68;3.50;;;6.40;99.90;;;;;;5044815;28;20041;-75
2021/10/26 04:23:26;;;;;;;5.95;3.25;;;6.50;99.90;;;;;;5034454;28;20131;-75
2021/10/26 04:25:52;;;;;;;10.40;3.63;;;6.60;99.90;;;;;;5018019;28;20848;-73
2021/10/26 04:28:18;;;;;;;8.07;3.65;;;6.50;99.90;;;;;;5035322;28;20063;-75
2021/10/26 04:30:44;;;;;;;7.55;3.65;;;6.30;99.90;;;;;;5043663;28;20024;-76
2021/10/26 04:33:11;;;;;;;7.90;4.15;;;6.20;99.90;;;;;;5045031;28;20029;-76
2021/10/26 04:35:37;;;;;;;7.22;3.55;;;6.20;99.90;;;;;;5044240;28;20047;-75
2021/10/26 04:38:04;;;;;;;6.68;3.60;;;6.30;99.90;;;;;;5029821;28;20496;-76
2021/10/26 04:40:31;;;;;;;5.82;3.03;;;6.20;99.90;;;;;;5023775;28;20451;-76
2021/10/26 04:42:57;;;;;;;6.53;3.42;;;6.10;99.90;;;;;;5041060;28;20090;-75
2021/10/26 04:45:23;;;;;;;7.43;4.03;;;6.20;99.90;;;;;;5034558;28;20186;-73
2021/10/26 04:47:50;;;;;;;5.68;2.88;;;6.20;99.90;;;;;;5033709;28;20637;-74
2021/10/26 04:50:16;;;;;;;5.93;3.45;;;6.10;99.90;;;;;;5034898;28;20025;-74
2021/10/26 04:52:42;;;;;;;7.57;3.70;;;6.20;99.90;;;;;;5031420;28;20045;-75
2021/10/26 04:55:08;;;;;;;8.07;3.25;;;6.00;99.90;;;;;;5035830;28;20032;-74
2021/10/26 04:57:34;;;;;;;4.68;2.40;;;6.00;99.90;;;;;;5037878;28;20037;-74
2021/10/26 05:00:01;;;;;;;6.57;3.42;;;6.00;99.90;;;;;;5041109;28;20021;-75
2021/10/26 05:02:27;;;;;;;6.85;3.05;;;6.10;99.90;;;;;;5040976;28;20033;-74
2021/10/26 05:04:52;;;;;;;7.43;2.90;;;6.00;99.90;;;;;;5040405;28;20040;-75
2021/10/26 05:07:18;;;;;;;6.75;3.47;;;6.00;99.90;;;;;;5042464;28;20025;-74
2021/10/26 05:09:44;;;;;;;6.80;3.15;;;6.00;99.90;;;;;;5037384;28;20052;-74
2021/10/26 05:12:10;;;;;;;5.95;3.05;;;6.10;99.90;;;;;;5042043;28;20029;-75
2021/10/26 05:14:35;;;;;;;11.50;4.20;;;6.00;99.90;;;;;;5043608;28;20032;-74
2021/10/26 05:17:04;;;;;;;9.98;3.97;;;6.10;99.90;;;;;;5039495;28;20518;-75
2021/10/26 05:19:30;;;;;;;5.90;3.50;;;6.10;99.90;;;;;;5028644;28;20060;-74
2021/10/26 05:21:56;;;;;;;7.35;3.83;;;5.90;99.90;;;;;;5041379;28;20039;-74
2021/10/26 05:24:24;;;;;;;7.75;3.95;;;5.90;99.90;;;;;;5038518;28;20395;-74
2021/10/26 05:26:52;;;;;;;6.57;3.13;;;5.90;99.90;;;;;;5035146;28;20051;-75
2021/10/26 05:29:18;;;;;;;7.60;3.80;;;5.90;99.90;;;;;;5039600;28;20029;-79
2021/10/26 05:31:44;;;;;;;6.90;2.97;;;5.60;99.90;;;;;;5044834;28;20033;-76
2021/10/26 05:34:10;;;;;;;7.50;3.30;;;5.70;99.90;;;;;;5043134;28;20099;-75
2021/10/26 05:36:37;;;;;;;15.13;3.03;;;5.80;99.90;;;;;;5041276;28;20120;-75
2021/10/26 05:39:09;;;;;;;6.65;3.30;;;5.90;99.90;;;;;;5042888;28;20025;-75
2021/10/26 05:41:35;;;;;;;6.22;2.80;;;5.80;99.90;;;;;;5043116;28;20541;-75
2021/10/26 05:44:02;;;;;;;6.05;2.88;;;5.80;99.90;;;;;;5041665;28;20039;-75
2021/10/26 05:46:28;;;;;;;5.85;3.08;;;5.90;99.90;;;;;;5037221;28;20164;-75
2021/10/26 05:48:53;;;;;;;5.03;2.70;;;5.90;99.90;;;;;;5033278;28;20516;-75
2021/10/26 05:51:19;;;;;;;6.00;3.05;;;5.80;99.90;;;;;;5041556;28;20033;-76
2021/10/26 05:53:45;;;;;;;6.03;3.30;;;5.90;99.90;;;;;;5041980;28;20194;-79
2021/10/26 05:56:10;;;;;;;14.35;4.72;;;6.00;99.90;;;;;;5041193;28;20033;-76
2021/10/26 05:58:37;;;;;;;11.85;4.00;;;6.00;99.90;;;;;;5040427;28;20029;-76
2021/10/26 06:01:04;;;;;;;5.72;3.33;;;5.90;99.90;;;;;;5043276;28;20113;-76
2021/10/26 06:03:31;;;;;;;6.85;3.30;;;5.90;99.90;;;;;;5043163;28;20032;-76
2021/10/26 06:05:57;;;;;;;5.60;3.38;;;5.90;99.90;;;;;;5040926;28;20029;-76
2021/10/26 06:08:23;;;;;;;8.45;4.38;;;5.90;99.90;;;;;;5042711;28;20067;-77
2021/10/26 06:10:56;;;;;;;7.55;4.18;;;5.90;99.90;;;;;;5027662;28;20025;-76
2021/10/26 06:13:29;;;;;;;9.27;5.13;;;5.80;99.90;;;;;;5041669;28;20037;-76
2021/10/26 06:15:55;;;;;;;7.20;3.80;;;5.90;99.90;;;;;;5043632;28;20283;-76
2021/10/26 06:18:21;;;;;;;8.60;3.30;;;6.00;99.90;;;;;;5034743;28;20036;-76
2021/10/26 06:20:47;;;;;;;7.35;3.08;;;6.00;99.90;;;;;;5031524;28;20021;-76
2021/10/26 06:23:13;;;;;;;5.82;2.92;;;5.90;99.90;;;;;;5022745;28;20024;-76
2021/10/26 06:25:39;;;;;;;7.50;3.75;;;5.70;99.90;;;;;;5041864;28;20545;-75
2021/10/26 06:28:05;;;;;;;6.53;3.20;;;5.70;99.90;;;;;;5042397;28;20056;-76
2021/10/26 06:30:32;;;;;;;7.55;3.85;;;5.60;99.90;;;;;;5041394;28;20106;-76
2021/10/26 06:32:57;;;;;;;5.78;3.53;;;5.60;99.90;;;;;;5040786;28;20033;-76
2021/10/26 06:35:23;;;;;;;10.05;3.78;;;5.60;99.90;;;;;;5040611;28;20041;-76
2021/10/26 06:37:49;;;;;;;5.68;3.58;;;5.70;99.90;;;;;;5043500;28;20021;-77
2021/10/26 06:40:17;;;;;;;7.43;3.92;;;5.60;99.90;;;;;;5041149;28;20102;-76
2021/10/26 06:42:44;;;;;;;11.15;5.78;;;5.70;99.90;;;;;;5039842;28;20029;-76
2021/10/26 06:45:11;;;;;;;11.45;6.55;;;5.60;99.90;;;;;;5036562;28;20072;-76
2021/10/26 06:47:37;;;;;;;9.18;5.22;;;5.50;99.90;;;;;;5040339;28;20106;-76
2021/10/26 06:50:07;;;;;;;9.07;4.63;;;5.40;99.90;;;;;;5042754;28;20033;-76
2021/10/26 06:52:32;;;;;;;8.50;4.10;;;5.50;99.90;;;;;;5039389;28;21345;-77
2021/10/26 06:55:00;;;;;;;8.05;4.30;;;5.50;99.90;;;;;;5037798;28;20032;-76
2021/10/26 06:57:27;;;;;;;8.27;4.03;;;5.50;99.90;;;;;;5041554;28;20032;-75
2021/10/26 06:59:53;;;;;;;8.38;4.50;;;5.50;99.90;;;;;;5042286;28;20097;-76
2021/10/26 07:02:19;;;;;;;7.65;3.78;;;5.60;99.90;;;;;;5043365;28;20514;-76
2021/10/26 07:04:45;;;;;;;5.25;3.42;;;5.60;99.90;;;;;;5042884;28;20494;-74
2021/10/26 07:07:11;;;;;;;6.75;4.00;;;5.60;99.90;;;;;;5041357;28;20025;-75
2021/10/26 07:09:38;;;;;;;6.68;3.42;;;5.50;99.90;;;;;;5019388;28;20503;-75
2021/10/26 07:12:05;;;;;;;8.38;4.22;;;5.30;99.90;;;;;;5023360;28;20026;-76
2021/10/26 07:14:30;;;;;;;7.70;2.95;;;5.60;99.90;;;;;;5030460;28;20044;-76
2021/10/26 07:16:56;;;;;;;6.18;3.45;;;5.60;99.90;;;;;;5043577;28;20091;-73
2021/10/26 07:19:22;;;;;;;9.00;4.05;;;5.60;99.90;;;;;;5038631;28;20029;-77
2021/10/26 07:21:49;;;;;;;5.78;3.33;;;5.30;99.90;;;;;;5030187;28;20120;-76
2021/10/26 07:24:14;;;;;;;6.20;3.20;;;5.40;99.90;;;;;;5041140;28;20036;-76
2021/10/26 07:26:40;;;;;;;7.53;3.42;;;5.50;99.90;;;;;;5027579;28;20029;-79
2021/10/26 07:29:06;;;;;;;28.20;4.68;;;6.10;99.90;;;;;;5028130;28;20029;-80
2021/10/26 07:31:32;;;;;;;12.48;3.63;;;7.50;99.90;;;;;;5044050;28;20044;-79
2021/10/26 07:33:59;;;;;;;8.65;3.53;;;7.60;99.90;;;;;;5043639;28;20357;-80
2021/10/26 07:36:33;;;;;;;9.20;3.25;;;6.80;99.90;;;;;;5044557;28;20498;-80
2021/10/26 07:39:06;;;;;;;18.13;4.82;;;6.40;99.90;;;;;;5042349;28;20116;-82
2021/10/26 07:41:33;;;;;;;6.50;3.63;;;6.40;99.90;;;;;;5044238;28;20150;-84
2021/10/26 07:43:59;;;;;;;7.18;3.78;;;6.30;99.90;;;;;;5045792;28;20036;-85
2021/10/26 07:46:24;;;;;;;7.32;3.97;;;6.20;99.90;;;;;;5045996;28;20037;-89
2021/10/26 07:48:50;;;;;;;5.68;3.33;;;6.50;99.90;;;;;;5044957;28;20021;-87
2021/10/26 07:51:16;;;;;;;8.00;3.00;;;6.40;99.90;;;;;;5044130;28;20705;-87
2021/10/26 07:53:42;;;;;;;8.73;4.00;;;6.20;99.90;;;;;;5045393;28;20111;-87
2021/10/26 07:56:09;;;;;;;6.50;3.35;;;6.10;99.90;;;;;;5043527;28;20021;-88
2021/10/26 07:58:37;;;;;;;6.57;3.65;;;6.10;99.90;;;;;;5044724;28;20151;-85
2021/10/26 08:01:03;;;;;;;7.25;3.55;;;6.10;99.90;;;;;;5045162;28;20025;-87
2021/10/26 08:03:29;;;;;;;6.38;3.47;;;6.30;99.90;;;;;;5046081;28;20040;-83
2021/10/26 08:05:54;;;;;;;7.38;3.05;;;6.30;99.90;;;;;;5045504;28;20128;-85
2021/10/26 08:08:21;;;;;;;11.68;3.50;;;6.10;99.90;;;;;;5042381;28;20475;-83
2021/10/26 08:10:47;;;;;;;6.32;3.60;;;6.30;99.90;;;;;;5028355;28;20669;-76
2021/10/26 08:13:14;;;;;;;7.93;3.50;;;6.40;99.90;;;;;;5041919;28;20033;-85
2021/10/26 08:15:40;;;;;;;5.38;3.45;;;6.80;99.90;;;;;;5047439;28;20079;-80
2021/10/26 08:18:05;;;;;;;5.40;3.20;;;6.50;99.90;;;;;;5047799;28;20504;-80
2021/10/26 08:20:31;;;;;;;5.90;3.10;;;6.50;99.90;;;;;;5044531;28;20040;-80
2021/10/26 08:22:57;;;;;;;6.55;3.92;;;6.50;99.90;;;;;;5045761;28;20027;-80
2021/10/26 08:25:26;;;;;;;7.07;3.40;;;6.50;99.90;;;;;;5045938;28;20029;-81
2021/10/26 08:27:55;;;;;;;7.55;3.45;;;6.50;99.90;;;;;;5047621;28;20028;-84
2021/10/26 08:30:34;;;;;;;6.78;3.25;;;6.50;99.90;;;;;;5038290;28;20037;-78
2021/10/26 08:33:14;;;;;;;7.93;3.10;;;6.60;99.90;;;;;;5039565;28;20120;-78
2021/10/26 08:35:41;;;;;;;8.38;3.60;;;6.70;99.90;;;;;;5032013;28;20025;-77
2021/10/26 08:38:08;;;;;;;5.60;3.28;;;6.70;99.90;;;;;;5044952;28;20033;-78
2021/10/26 08:40:37;;;;;;;6.38;3.17;;;6.80;99.90;;;;;;5042706;28;20033;-78
2021/10/26 08:43:06;;;;;;;6.57;2.92;;;6.90;99.90;;;;;;5044148;28;20798;-79
2021/10/26 08:45:35;;;;;;;7.32;3.50;;;6.90;99.90;;;;;;5044581;28;20066;-79
2021/10/26 08:48:05;;;;;;;7.13;2.97;;;7.00;99.90;;;;;;5044633;28;20053;-79
2021/10/26 08:50:35;;;;;;;7.72;4.25;;;7.00;99.90;;;;;;5045298;28;20025;-79
2021/10/26 08:53:02;;;;;;;5.68;3.35;;;7.10;99.90;;;;;;5043022;28;20038;-79
2021/10/26 08:55:30;;;;;;;8.13;4.00;;;7.20;99.90;;;;;;5029373;28;20021;-79
2021/10/26 08:57:56;;;;;;;6.80;3.63;;;7.20;99.90;;;;;;5044722;28;20024;-78
2021/10/26 09:00:23;;;;;;;7.82;3.60;;;7.30;99.90;;;;;;5045619;28;20029;-79
2021/10/26 09:02:52;;;;;;;10.40;4.15;;;7.40;99.90;;;;;;5045909;28;20546;-79
2021/10/26 09:05:21;;;;;;;8.73;5.22;;;7.60;99.90;;;;;;5046891;28;20399;-79
2021/10/26 09:08:07;;;;;;;12.23;5.38;;;7.60;99.90;;;;;;5044766;28;20043;-79
2021/10/26 09:10:36;;;;;;;8.73;3.80;;;7.80;99.90;;;;;;5045375;28;20119;-79
2021/10/26 09:16:47;;;;;;;6.53;3.53;;;7.90;99.90;;;;;;5026561;28;20080;-79
2021/10/26 09:19:17;;;;;;;6.43;3.63;;;8.10;99.90;;;;;;4984206;28;20026;-79
2021/10/26 09:22:04;;;;;;;6.85;3.75;;;8.20;99.90;;;;;;5022324;28;20095;-79
2021/10/26 09:24:31;;;;;;;8.77;4.15;;;8.30;99.90;;;;;;5040215;28;20114;-79
2021/10/26 09:27:04;;;;;;;8.38;4.55;;;8.20;99.90;;;;;;5043570;28;20814;-79
2021/10/26 09:29:30;;;;;;;8.88;4.32;;;8.30;99.90;;;;;;5044920;28;20390;-79
2021/10/26 09:32:07;;;;;;;8.07;4.00;;;8.30;99.90;;;;;;5044222;28;20028;-79
2021/10/26 09:34:45;;;;;;;13.25;4.95;;;8.30;99.90;;;;;;5037624;28;20625;-79
2021/10/26 09:37:14;;;;;;;9.20;3.50;;;8.40;99.90;;;;;;5033264;28;20036;-79
2021/10/26 09:39:55;;;;;;;9.18;4.38;;;8.60;99.90;;;;;;5044769;28;20055;-79
2021/10/26 09:42:22;;;;;;;5.47;3.40;;;8.70;99.90;;;;;;5042823;28;20478;-79
2021/10/26 09:44:50;;;;;;;7.97;3.78;;;8.70;99.90;;;;;;5039335;28;20033;-79
2021/10/26 09:47:39;;;;;;;6.53;4.22;;;8.80;99.90;;;;;;5042305;28;20063;-78
2021/10/26 09:50:09;;;;;;;9.18;4.93;;;8.80;99.90;;;;;;5031769;28;20044;-79
2021/10/26 09:52:37;;;;;;;8.25;3.92;;;8.80;99.90;;;;;;5035932;28;20033;-78
2021/10/26 09:58:05;;;;;;;19.83;4.50;;;9.10;99.90;;;;;;5033900;28;20563;-78
2021/10/26 10:00:39;;;;;;;7.35;3.70;;;9.10;99.90;;;;;;5039899;28;20028;-78
2021/10/26 10:03:09;;;;;;;5.68;3.50;;;9.00;99.90;;;;;;5042221;28;20114;-78
2021/10/26 10:05:54;;;;;;;10.23;4.35;;;9.20;99.90;;;;;;5024127;28;20037;-78
2021/10/26 10:08:30;;;;;;;8.67;4.43;;;9.30;99.90;;;;;;5040277;28;20467;-79
2021/10/26 10:11:14;;;;;;;7.18;3.78;;;9.40;99.90;;;;;;5040211;28;20021;-78
2021/10/26 10:13:57;;;;;;;11.18;3.75;;;9.40;99.90;;;;;;5041574;28;20061;-78
2021/10/26 10:16:26;;;;;;;10.90;3.95;;;9.50;99.90;;;;;;5043054;28;20800;-78
2021/10/26 10:18:54;;;;;;;9.48;4.13;;;9.60;99.90;;;;;;5044344;28;20463;-79
2021/10/26 10:21:26;;;;;;;8.63;3.70;;;9.60;99.80;;;;;;5040569;28;20037;-80
2021/10/26 10:24:01;;;;;;;7.22;4.10;;;9.60;99.90;;;;;;5043417;28;20029;-80
2021/10/26 10:26:30;;;;;;;;;;;9.80;99.90;;;;;;5042997;28;20083;-80
2021/10/26 10:29:00;;;;;;;8.48;3.20;;;10.10;99.90;;;;;;5043228;28;19912;-80
2021/10/26 10:31:28;;;;;;;6.30;3.70;;;10.10;99.60;;;;;;5043365;28;20025;-80
2021/10/26 10:33:57;;;;;;;9.05;4.32;;;10.00;99.00;;;;;;5023906;28;20485;-81
2021/10/26 10:36:24;;;;;;;6.90;3.33;;;10.10;99.70;;;;;;5042094;28;20033;-79
2021/10/26 10:38:56;;;;;;;5.82;3.65;;;10.20;99.70;;;;;;5043613;28;20379;-78
2021/10/26 10:41:37;;;;;;;6.28;3.58;;;10.30;99.60;;;;;;5042650;28;20048;-78
2021/10/26 10:44:08;;;;;;;6.47;4.07;;;10.40;99.30;;;;;;5041514;28;20568;-78
2021/10/26 10:46:39;;;;;;;7.72;3.67;;;10.40;98.70;;;;;;5040178;28;20032;-78
2021/10/26 10:49:20;;;;;;;8.25;3.58;;;10.50;98.70;;;;;;5042456;28;20491;-79
2021/10/26 10:51:59;;;;;;;6.38;3.72;;;10.60;98.00;;;;;;5036389;28;20052;-79
2021/10/26 10:54:38;;;;;;;7.68;3.53;;;10.70;98.40;;;;;;5040138;28;20598;-79
2021/10/26 10:57:21;;;;;;;7.13;3.45;;;11.20;97.90;;;;;;5038653;28;20124;-79
2021/10/26 10:59:56;;;;;;;8.43;4.07;;;11.30;97.90;;;;;;5020432;28;20052;-78
2021/10/26 11:02:27;;;;;;;7.10;3.60;;;11.10;97.90;;;;;;5021444;28;20025;-78
2021/10/26 11:04:55;;;;;;;6.78;3.50;;;11.20;98.00;;;;;;5040395;28;20479;-78
2021/10/26 11:07:43;;;;;;;6.00;3.13;;;11.40;98.10;;;;;;5019821;28;20462;-78
2021/10/26 11:10:10;;;;;;;6.47;3.50;;;11.50;97.70;;;;;;5021798;28;20608;-78
2021/10/26 11:12:38;;;;;;;6.40;3.47;;;11.40;96.80;;;;;;5033403;28;20608;-78
2021/10/26 11:15:08;;;;;;;6.82;3.53;;;11.60;97.50;;;;;;5041490;28;20086;-78
2021/10/26 11:17:35;;;;;;;8.23;3.72;;;11.70;96.80;;;;;;5040372;28;20056;-78
2021/10/26 11:20:32;;;;;;;7.78;3.55;;;11.80;96.50;;;;;;5041906;28;20084;-78
2021/10/26 11:23:03;;;;;;;7.45;4.22;;;11.80;96.70;;;;;;5041511;28;20021;-78
2021/10/26 11:25:31;;;;;;;8.20;3.40;;;12.00;96.50;;;;;;5046056;28;20040;-78
2021/10/26 11:28:02;;;;;;;5.72;3.22;;;12.10;95.90;;;;;;5044889;28;20025;-78
2021/10/26 11:30:28;;;;;;;6.63;3.65;;;12.30;95.50;;;;;;5044857;28;20100;-78
2021/10/26 11:33:12;;;;;;;7.18;3.75;;;12.20;95.90;;;;;;5044121;28;20055;-79
2021/10/26 11:35:50;;;;;;;6.72;3.28;;;12.20;96.00;;;;;;5044545;28;20028;-78
2021/10/26 11:38:24;;;;;;;8.27;3.55;;;12.20;95.80;;;;;;5038695;28;20041;-78
2021/10/26 11:41:01;;;;;;;6.82;3.35;;;12.20;96.10;;;;;;5039942;28;20064;-78
2021/10/26 11:43:57;;;;;;;6.28;3.78;;;12.40;95.60;;;;;;5044533;28;20124;-78
2021/10/26 11:46:33;;;;;;;11.63;4.15;;;12.50;95.50;;;;;;5030979;28;20048;-78
2021/10/26 11:49:07;;;;;;;10.48;3.78;;;12.40;95.40;;;;;;5045693;28;20025;-78
2021/10/26 11:51:37;;;;;;;;;;;12.40;95.30;;;;;;5044048;28;20091;-78
2021/10/26 11:54:18;;;;;;;5.60;3.53;;;12.50;95.00;;;;;;5031134;28;20435;-78
2021/10/26 11:56:49;;;;;;;15.25;3.95;;;12.50;95.10;;;;;;5047025;28;20036;-78
2021/10/26 11:59:39;;;;;;;5.55;2.67;;;12.70;94.90;;;;;;5047569;28;20033;-78
2021/10/26 12:02:05;;;;;;;11.05;2.95;;;12.60;95.00;;;;;;5035677;28;20045;-78
2021/10/26 12:04:49;;;;;;;8.57;3.30;;;12.80;95.20;;;;;;5047211;28;20025;-79
2021/10/26 12:07:18;;;;;;;4.22;2.50;;;12.80;94.60;;;;;;5046931;28;20067;-78
2021/10/26 12:09:49;;;;;;;6.80;2.97;;;12.80;94.60;;;;;;5047208;28;20052;-78
2021/10/26 12:12:25;;;;;;;4.50;2.72;;;12.80;94.50;;;;;;5040139;28;20087;-78
2021/10/26 12:14:53;;;;;;;5.97;3.10;;;12.80;94.20;;;;;;5048848;28;20029;-78
2021/10/26 12:17:29;;;;;;;5.93;3.10;;;13.00;95.30;;;;;;5046966;28;20045;-78
2021/10/26 12:20:06;;;;;;;11.73;3.83;;;13.20;94.50;;;;;;5043703;28;20100;-78
2021/10/26 12:22:39;;;;;;;5.95;3.08;;;13.20;94.10;;;;;;5038571;28;20116;-79
2021/10/26 12:25:21;;;;;;;10.07;3.08;;;13.20;93.70;;;;;;5049307;28;20033;-78
2021/10/26 12:27:49;;;;;;;5.25;2.78;;;13.20;93.20;;;;;;5047098;28;20020;-77
2021/10/26 12:30:30;;;;;;;6.18;2.50;;;13.00;93.20;;;;;;5031600;28;20032;-76
2021/10/26 12:32:58;;;;;;;5.32;2.67;;;13.20;93.70;;;;;;5046840;28;20029;-76
2021/10/26 12:35:30;;;;;;;5.32;2.63;;;13.10;93.50;;;;;;5044690;28;20041;-77
2021/10/26 12:38:10;;;;;;;5.85;2.75;;;13.10;93.10;;;;;;5044522;28;20119;-78
2021/10/26 12:40:46;;;;;;;5.47;2.85;;;13.50;93.00;;;;;;5048063;28;20025;-78
2021/10/26 12:43:18;;;;;;;4.68;2.38;;;13.60;92.80;;;;;;5045273;28;20633;-78
2021/10/26 12:45:44;;;;;;;5.85;2.65;;;13.60;92.10;;;;;;5046253;28;20104;-78
2021/10/26 12:48:12;;;;;;;5.85;2.85;;;13.40;92.20;;;;;;5046665;28;20136;-79
2021/10/26 12:51:00;;;;;;;6.20;3.10;;;13.30;92.30;;;;;;5048440;28;20024;-78
2021/10/26 12:53:43;;;;;;;5.53;2.67;;;13.50;92.60;;;;;;5030547;28;20025;-77
2021/10/26 12:56:51;;;;;;;5.80;2.90;;;13.70;92.50;;;;;;5027421;28;20091;-78
2021/10/26 12:59:18;;;;;;;5.50;2.85;;;13.60;92.70;;;;;;5000559;28;20394;-78
2021/10/26 13:01:49;;;;;;;7.05;2.65;;;13.60;92.50;;;;;;5046040;28;20025;-79
2021/10/26 13:04:24;;;;;;;6.40;2.40;;;13.60;92.60;;;;;;5027311;28;20029;-78
2021/10/26 13:07:01;;;;;;;8.00;2.65;;;13.90;93.00;;;;;;5026702;28;20087;-79
2021/10/26 13:09:50;;;;;;;5.75;2.80;;;13.80;92.20;;;;;;5037743;28;20757;-78
2021/10/26 13:12:31;;;;;;;6.30;2.50;;;13.90;92.30;;;;;;5046489;28;20025;-79
2021/10/26 13:15:21;;;;;;;4.63;2.25;;;14.00;92.00;;;;;;5046850;28;20021;-78